Dundee, United Kingdom

6:24 AM BST on September 03, 2015 (GMT +0100)
West End | | Change Station
CLOSE
Current Station
Personal Weather Station
Location: Dundee,
Elevation: 187 ft
Nearby Weather Stations

Elev 187 ft 56.46 °N, 3.02 °W | Updated 20 seconds ago

Mostly Cloudy
Mostly Cloudy
48.5 °F
Feels Like 48 °F
N
0.0
Wind Variable Wind from West
Gusts 0.0 mph

Today
High -- | Low -- °F
--% Chance of Precip.
Yesterday
High -- | Low -- °F
Precip. -- in
6:18 AM 8:03 PM
Waning Gibbous, 74% visible
Pressure 29.95 in
Visibility 6.2 miles
Clouds Mostly Cloudy 3500 ft
Windchill 48 °F
Dew Point 43 °F
Humidity 82%
Rainfall 0.00 in
Snow Depth Not available.
UV 0.0 out of 12
Pollen Not available.
Air Quality Not available.
Flu Activity Not available.
METAR EGQL 030450Z 33004KT 9999 BKN035 11/05 Q1014 BLU
Pressure 29.95 in
Visibility 6.2 miles
Clouds Mostly Cloudy 3500 ft
Windchill 48 °F
Dew Point 43 °F
Humidity 82%
Rainfall 0.00 in
Snow Depth Not available.
UV 0.0 out of 12
Pollen Not available.
Air Quality Not available.
Flu Activity Not available.
METAR EGQL 030450Z 33004KT 9999 BKN035 11/05 Q1014 BLU

10-Day Weather Forecast

×

Almanac

Astronomy

Sep. 03, 2015 Rise Set
Actual Time
Civil Twilight
Nautical Twilight
Astronomical Twilight
Moon
Length of Visible Light
Length of Day
Tomorrow will be .
, % of the Moon is Illuminated

Today's Extremes

Country Highs Country Lows

Community

WunderPhotos

Upload Photos

1,851,914 photos uploaded!

WunderBlogs® & News

Nearby

Air Quality

  Air Quality AQ Index Pollutant
Not available.

Snow Depth

Station Depth Elevation

Earthquake Activity

City Distance Mag. Time & Date
Minimum magnitude displayed is 2.5.

Coastal Water Temperatures

Place Temperature

Stations

Nearby Weather Stations

Station Location Temp. Windchill Dew Point Humidity Wind Precip. Elev Updated Type